Time;durP1;ratioP1;P1;durP2;ratioP2;P2;SDS_P1;SDS_P2;PMS_P1;PMS_P2;Temp;Humidity;BMP_temperature;BMP_pressure;BME280_temperature;BME280_humidity;BME280_pressure;Samples;Min_cycle;Max_cycle;Signal;HPM_P1;HPM_P2
2022/05/21 00:00:02;;;;;;;9.050001;7.149999;;;;;;;21.27;56.47168;95549.61;;;;
2022/05/21 00:01:03;;;;;;;9.050001;7.149999;;;;;;;21.27;56.47168;95549.61;;;;
2022/05/21 00:02:04;;;;;;;9.050001;7.149999;;;;;;;21.27;56.47168;95549.61;;;;
2022/05/21 00:03:05;;;;;;;9.050001;7.149999;;;;;;;21.27;56.47168;95549.61;;;;
2022/05/21 00:04:07;;;;;;;9.649999;7.15;;;;;;;20.76;57.58105;95580.11;;;;
2022/05/21 00:05:07;;;;;;;9.649999;7.15;;;;;;;20.76;57.58105;95580.11;;;;
2022/05/21 00:06:09;;;;;;;9.649999;7.15;;;;;;;20.76;57.58105;95580.11;;;;
2022/05/21 00:07:10;;;;;;;9.649999;7.15;;;;;;;20.76;57.58105;95580.11;;;;
2022/05/21 00:08:11;;;;;;;9.649999;7.15;;;;;;;20.76;57.58105;95580.11;;;;
2022/05/21 00:09:11;;;;;;;9.649999;7.15;;;;;;;20.76;57.58105;95580.11;;;;
2022/05/21 00:10:12;;;;;;;9.649999;7.15;;;;;;;20.76;57.58105;95580.11;;;;
2022/05/21 00:11:14;;;;;;;9.649999;7.15;;;;;;;20.76;57.58105;95580.11;;;;
2022/05/21 00:12:15;;;;;;;9.649999;7.15;;;;;;;20.76;57.58105;95580.11;;;;
2022/05/21 00:13:16;;;;;;;9.649999;7.15;;;;;;;20.76;57.58105;95580.11;;;;
2022/05/21 00:14:17;;;;;;;10.3;6.900001;;;;;;;20.43;59.11914;95621.81;;;;
2022/05/21 00:15:17;;;;;;;10.3;6.900001;;;;;;;20.43;59.11914;95621.81;;;;
2022/05/21 00:16:20;;;;;;;10.3;6.900001;;;;;;;20.43;59.11914;95621.81;;;;
2022/05/21 00:17:21;;;;;;;10.3;6.900001;;;;;;;20.43;59.11914;95621.81;;;;
2022/05/21 00:18:21;;;;;;;10.3;6.900001;;;;;;;20.43;59.11914;95621.81;;;;
2022/05/21 00:19:22;;;;;;;10.3;6.900001;;;;;;;20.43;59.11914;95621.81;;;;
2022/05/21 00:20:55;;;;;;;10.3;6.900001;;;;;;;20.43;59.11914;95621.81;;;;
2022/05/21 00:21:55;;;;;;;10.3;6.900001;;;;;;;20.43;59.11914;95621.81;;;;
2022/05/21 00:22:56;;;;;;;10.3;6.900001;;;;;;;20.43;59.11914;95621.81;;;;
2022/05/21 00:23:57;;;;;;;10.3;6.900001;;;;;;;20.43;59.11914;95621.81;;;;
2022/05/21 00:24:57;;;;;;;8.9;6.149999;;;;;;;20.21;60.06152;95615.44;;;;
2022/05/21 00:25:58;;;;;;;8.9;6.149999;;;;;;;20.21;60.06152;95615.44;;;;
2022/05/21 00:27:02;;;;;;;8.9;6.149999;;;;;;;20.21;60.06152;95615.44;;;;
2022/05/21 00:28:03;;;;;;;8.9;6.149999;;;;;;;20.21;60.06152;95615.44;;;;
2022/05/21 00:29:04;;;;;;;8.9;6.149999;;;;;;;20.21;60.06152;95615.44;;;;
2022/05/21 00:30:05;;;;;;;8.9;6.149999;;;;;;;20.21;60.06152;95615.44;;;;
2022/05/21 00:31:06;;;;;;;8.9;6.149999;;;;;;;20.21;60.06152;95615.44;;;;
2022/05/21 00:32:10;;;;;;;8.9;6.149999;;;;;;;20.21;60.06152;95615.44;;;;
2022/05/21 00:33:11;;;;;;;8.9;6.149999;;;;;;;20.21;60.06152;95615.44;;;;
2022/05/21 00:34:12;;;;;;;8.9;6.149999;;;;;;;20.21;60.06152;95615.44;;;;
2022/05/21 00:35:13;;;;;;;7.7;6.400001;;;;;;;20;60.58594;95634.66;;;;
2022/05/21 00:36:13;;;;;;;7.7;6.400001;;;;;;;20;60.58594;95634.66;;;;
2022/05/21 00:37:14;;;;;;;7.7;6.400001;;;;;;;20;60.58594;95634.66;;;;
2022/05/21 00:38:14;;;;;;;7.7;6.400001;;;;;;;20;60.58594;95634.66;;;;
2022/05/21 00:39:15;;;;;;;7.7;6.400001;;;;;;;20;60.58594;95634.66;;;;
2022/05/21 00:40:16;;;;;;;7.7;6.400001;;;;;;;20;60.58594;95634.66;;;;
2022/05/21 00:41:17;;;;;;;7.7;6.400001;;;;;;;20;60.58594;95634.66;;;;
2022/05/21 00:42:19;;;;;;;7.7;6.400001;;;;;;;20;60.58594;95634.66;;;;
2022/05/21 00:43:19;;;;;;;7.7;6.400001;;;;;;;20;60.58594;95634.66;;;;
2022/05/21 00:44:40;;;;;;;7.7;6.400001;;;;;;;20;60.58594;95634.66;;;;
2022/05/21 00:45:41;;;;;;;7.7;6.400001;;;;;;;20;60.58594;95634.66;;;;
2022/05/21 00:46:41;;;;;;;7.45;5.5;;;;;;;19.86;61.25098;95643.71;;;;
2022/05/21 00:47:44;;;;;;;7.45;5.5;;;;;;;19.86;61.25098;95643.71;;;;
2022/05/21 00:48:45;;;;;;;7.45;5.5;;;;;;;19.86;61.25098;95643.71;;;;
2022/05/21 00:49:52;;;;;;;7.45;5.5;;;;;;;19.86;61.25098;95643.71;;;;
2022/05/21 00:50:53;;;;;;;7.45;5.5;;;;;;;19.86;61.25098;95643.71;;;;
2022/05/21 00:51:53;;;;;;;7.45;5.5;;;;;;;19.86;61.25098;95643.71;;;;
2022/05/21 00:53:02;;;;;;;7.45;5.5;;;;;;;19.86;61.25098;95643.71;;;;
2022/05/21 00:54:02;;;;;;;7.45;5.5;;;;;;;19.86;61.25098;95643.71;;;;
2022/05/21 00:55:05;;;;;;;7.45;5.5;;;;;;;19.86;61.25098;95643.71;;;;
2022/05/21 00:56:11;;;;;;;7.45;5.5;;;;;;;19.86;61.25098;95643.71;;;;
2022/05/21 00:57:14;;;;;;;7.3;5.400001;;;;;;;19.68;61.74512;95643.73;;;;
2022/05/21 01:03:41;;;;;;;7.3;5.400001;;;;;;;19.68;61.74512;95643.73;;;;
2022/05/21 01:04:44;;;;;;;7.3;5.400001;;;;;;;19.68;61.74512;95643.73;;;;
2022/05/21 01:05:45;;;;;;;7.3;5.400001;;;;;;;19.68;61.74512;95643.73;;;;
2022/05/21 01:06:48;;;;;;;7.3;5.400001;;;;;;;19.68;61.74512;95643.73;;;;
2022/05/21 01:07:48;;;;;;;6.75;5.3;;;;;;;19.66;61.69727;95641.05;;;;
2022/05/21 01:08:53;;;;;;;6.75;5.3;;;;;;;19.66;61.69727;95641.05;;;;
2022/05/21 01:09:54;;;;;;;6.75;5.3;;;;;;;19.66;61.69727;95641.05;;;;
2022/05/21 01:10:56;;;;;;;6.75;5.3;;;;;;;19.66;61.69727;95641.05;;;;
2022/05/21 01:12:02;;;;;;;6.75;5.3;;;;;;;19.66;61.69727;95641.05;;;;
2022/05/21 01:13:05;;;;;;;6.75;5.3;;;;;;;19.66;61.69727;95641.05;;;;
2022/05/21 01:14:10;;;;;;;6.75;5.3;;;;;;;19.66;61.69727;95641.05;;;;
2022/05/21 01:15:12;;;;;;;6.75;5.3;;;;;;;19.66;61.69727;95641.05;;;;
2022/05/21 01:16:15;;;;;;;6.75;5.3;;;;;;;19.66;61.69727;95641.05;;;;
2022/05/21 01:17:17;;;;;;;6.75;5.3;;;;;;;19.66;61.69727;95641.05;;;;
2022/05/21 01:18:20;;;;;;;7.3;5.199999;;;;;;;19.58;61.80762;95643.28;;;;
2022/05/21 01:19:22;;;;;;;7.3;5.199999;;;;;;;19.58;61.80762;95643.28;;;;
2022/05/21 01:20:23;;;;;;;7.3;5.199999;;;;;;;19.58;61.80762;95643.28;;;;
2022/05/21 01:21:35;;;;;;;7.3;5.199999;;;;;;;19.58;61.80762;95643.28;;;;
2022/05/21 01:22:37;;;;;;;7.3;5.199999;;;;;;;19.58;61.80762;95643.28;;;;
2022/05/21 01:23:40;;;;;;;7.3;5.199999;;;;;;;19.58;61.80762;95643.28;;;;
2022/05/21 01:24:41;;;;;;;7.3;5.199999;;;;;;;19.58;61.80762;95643.28;;;;
2022/05/21 01:25:41;;;;;;;7.3;5.199999;;;;;;;19.58;61.80762;95643.28;;;;
2022/05/21 01:26:44;;;;;;;7.3;5.199999;;;;;;;19.58;61.80762;95643.28;;;;
2022/05/21 01:27:45;;;;;;;7.3;5.199999;;;;;;;19.58;61.80762;95643.28;;;;
2022/05/21 01:28:48;;;;;;;5.299999;4.75;;;;;;;19.56;61.92676;95677.08;;;;
2022/05/21 01:29:50;;;;;;;5.299999;4.75;;;;;;;19.56;61.92676;95677.08;;;;
2022/05/21 01:30:52;;;;;;;5.299999;4.75;;;;;;;19.56;61.92676;95677.08;;;;
2022/05/21 01:31:55;;;;;;;5.299999;4.75;;;;;;;19.56;61.92676;95677.08;;;;
2022/05/21 01:32:55;;;;;;;5.299999;4.75;;;;;;;19.56;61.92676;95677.08;;;;
2022/05/21 01:33:56;;;;;;;5.299999;4.75;;;;;;;19.56;61.92676;95677.08;;;;
2022/05/21 01:34:56;;;;;;;5.299999;4.75;;;;;;;19.56;61.92676;95677.08;;;;
2022/05/21 01:35:57;;;;;;;5.299999;4.75;;;;;;;19.56;61.92676;95677.08;;;;
2022/05/21 01:36:59;;;;;;;5.299999;4.75;;;;;;;19.56;61.92676;95677.08;;;;
2022/05/21 01:38:00;;;;;;;5.299999;4.75;;;;;;;19.56;61.92676;95677.08;;;;
2022/05/21 01:39:01;;;;;;;5.299999;4.75;;;;;;;19.56;61.92676;95677.08;;;;
2022/05/21 01:40:02;;;;;;;7.9;6.599999;;;;;;;19.14;62.71582;95692.64;;;;
2022/05/21 01:41:03;;;;;;;7.9;6.599999;;;;;;;19.14;62.71582;95692.64;;;;
2022/05/21 01:42:05;;;;;;;7.9;6.599999;;;;;;;19.14;62.71582;95692.64;;;;
2022/05/21 01:48:21;;;;;;;7.9;6.599999;;;;;;;19.14;62.71582;95692.64;;;;
2022/05/21 01:49:24;;;;;;;7.9;6.599999;;;;;;;19.14;62.71582;95692.64;;;;
2022/05/21 01:50:24;;;;;;;9.3;7.400001;;;;;;;18.48;66.18359;95690.36;;;;
2022/05/21 01:51:25;;;;;;;9.3;7.400001;;;;;;;18.48;66.18359;95690.36;;;;
2022/05/21 01:52:26;;;;;;;9.3;7.400001;;;;;;;18.48;66.18359;95690.36;;;;
2022/05/21 01:53:27;;;;;;;9.3;7.400001;;;;;;;18.48;66.18359;95690.36;;;;
2022/05/21 01:54:28;;;;;;;9.3;7.400001;;;;;;;18.48;66.18359;95690.36;;;;
2022/05/21 01:55:30;;;;;;;9.3;7.400001;;;;;;;18.48;66.18359;95690.36;;;;
2022/05/21 01:56:31;;;;;;;9.3;7.400001;;;;;;;18.48;66.18359;95690.36;;;;
2022/05/21 01:57:32;;;;;;;9.3;7.400001;;;;;;;18.48;66.18359;95690.36;;;;
2022/05/21 01:58:32;;;;;;;9.3;7.400001;;;;;;;18.48;66.18359;95690.36;;;;
2022/05/21 01:59:33;;;;;;;9.3;7.400001;;;;;;;18.48;66.18359;95690.36;;;;
2022/05/21 02:00:33;;;;;;;8.9;7.7;;;;;;;17.98;68.63086;95691.6;;;;
2022/05/21 02:01:34;;;;;;;8.9;7.7;;;;;;;17.98;68.63086;95691.6;;;;
2022/05/21 02:02:34;;;;;;;8.9;7.7;;;;;;;17.98;68.63086;95691.6;;;;
2022/05/21 02:03:35;;;;;;;8.9;7.7;;;;;;;17.98;68.63086;95691.6;;;;
2022/05/21 02:04:36;;;;;;;8.9;7.7;;;;;;;17.98;68.63086;95691.6;;;;
2022/05/21 02:05:37;;;;;;;8.9;7.7;;;;;;;17.98;68.63086;95691.6;;;;
2022/05/21 02:06:38;;;;;;;8.9;7.7;;;;;;;17.98;68.63086;95691.6;;;;
2022/05/21 02:07:38;;;;;;;8.9;7.7;;;;;;;17.98;68.63086;95691.6;;;;
2022/05/21 02:08:39;;;;;;;8.9;7.7;;;;;;;17.98;68.63086;95691.6;;;;
2022/05/21 02:09:39;;;;;;;8.9;7.7;;;;;;;17.98;68.63086;95691.6;;;;
2022/05/21 02:10:40;;;;;;;8.9;7.7;;;;;;;17.98;68.63086;95691.6;;;;
2022/05/21 02:11:43;;;;;;;9.200001;8.3;;;;;;;17.74;70.57715;95688.72;;;;
2022/05/21 02:12:43;;;;;;;9.200001;8.3;;;;;;;17.74;70.57715;95688.72;;;;
2022/05/21 02:13:44;;;;;;;9.200001;8.3;;;;;;;17.74;70.57715;95688.72;;;;
2022/05/21 02:14:44;;;;;;;9.200001;8.3;;;;;;;17.74;70.57715;95688.72;;;;
2022/05/21 02:15:45;;;;;;;9.200001;8.3;;;;;;;17.74;70.57715;95688.72;;;;
2022/05/21 02:16:45;;;;;;;9.200001;8.3;;;;;;;17.74;70.57715;95688.72;;;;
2022/05/21 02:17:46;;;;;;;9.200001;8.3;;;;;;;17.74;70.57715;95688.72;;;;
2022/05/21 02:18:46;;;;;;;9.200001;8.3;;;;;;;17.74;70.57715;95688.72;;;;
2022/05/21 02:19:47;;;;;;;9.200001;8.3;;;;;;;17.74;70.57715;95688.72;;;;
2022/05/21 02:20:48;;;;;;;9.200001;8.3;;;;;;;17.74;70.57715;95688.72;;;;
2022/05/21 02:21:50;;;;;;;9.200001;8.3;;;;;;;17.74;70.57715;95688.72;;;;
2022/05/21 02:22:50;;;;;;;9.799999;8.7;;;;;;;17.61;71.89258;95696.17;;;;
2022/05/21 02:23:51;;;;;;;9.799999;8.7;;;;;;;17.61;71.89258;95696.17;;;;
2022/05/21 02:24:52;;;;;;;9.799999;8.7;;;;;;;17.61;71.89258;95696.17;;;;
2022/05/21 02:25:52;;;;;;;9.799999;8.7;;;;;;;17.61;71.89258;95696.17;;;;
2022/05/21 02:26:53;;;;;;;9.799999;8.7;;;;;;;17.61;71.89258;95696.17;;;;
2022/05/21 02:27:53;;;;;;;9.799999;8.7;;;;;;;17.61;71.89258;95696.17;;;;
2022/05/21 02:28:54;;;;;;;9.799999;8.7;;;;;;;17.61;71.89258;95696.17;;;;
2022/05/21 02:29:54;;;;;;;9.799999;8.7;;;;;;;17.61;71.89258;95696.17;;;;
2022/05/21 02:30:55;;;;;;;9.799999;8.7;;;;;;;17.61;71.89258;95696.17;;;;
2022/05/21 02:31:55;;;;;;;9.799999;8.7;;;;;;;17.61;71.89258;95696.17;;;;
2022/05/21 02:32:56;;;;;;;10;8.9;;;;;;;17.6;73.09277;95710.19;;;;
2022/05/21 02:33:56;;;;;;;10;8.9;;;;;;;17.6;73.09277;95710.19;;;;
2022/05/21 02:34:57;;;;;;;10;8.9;;;;;;;17.6;73.09277;95710.19;;;;
2022/05/21 02:35:57;;;;;;;10;8.9;;;;;;;17.6;73.09277;95710.19;;;;
2022/05/21 02:42:43;;;;;;;10;8.9;;;;;;;17.6;73.09277;95710.19;;;;
2022/05/21 02:43:43;;;;;;;10.7;8.900001;;;;;;;17.51;74.00684;95716.57;;;;
2022/05/21 02:44:44;;;;;;;10.7;8.900001;;;;;;;17.51;74.00684;95716.57;;;;
2022/05/21 02:45:45;;;;;;;10.7;8.900001;;;;;;;17.51;74.00684;95716.57;;;;
2022/05/21 02:46:46;;;;;;;10.7;8.900001;;;;;;;17.51;74.00684;95716.57;;;;
2022/05/21 02:47:46;;;;;;;10.7;8.900001;;;;;;;17.51;74.00684;95716.57;;;;
2022/05/21 02:48:48;;;;;;;10.7;8.900001;;;;;;;17.51;74.00684;95716.57;;;;
2022/05/21 02:49:48;;;;;;;10.7;8.900001;;;;;;;17.51;74.00684;95716.57;;;;
2022/05/21 02:50:49;;;;;;;10.7;8.900001;;;;;;;17.51;74.00684;95716.57;;;;
2022/05/21 02:51:49;;;;;;;10.7;8.900001;;;;;;;17.51;74.00684;95716.57;;;;
2022/05/21 02:52:50;;;;;;;10.7;8.900001;;;;;;;17.51;74.00684;95716.57;;;;
2022/05/21 02:53:50;;;;;;;10.7;8.900001;;;;;;;17.51;74.00684;95716.57;;;;
2022/05/21 02:54:51;;;;;;;10.7;7.95;;;;;;;17.5;75.14258;95704.27;;;;
2022/05/21 02:55:55;;;;;;;10.7;7.95;;;;;;;17.5;75.14258;95704.27;;;;
2022/05/21 02:56:55;;;;;;;10.7;7.95;;;;;;;17.5;75.14258;95704.27;;;;
2022/05/21 02:57:56;;;;;;;10.7;7.95;;;;;;;17.5;75.14258;95704.27;;;;
2022/05/21 02:58:58;;;;;;;10.7;7.95;;;;;;;17.5;75.14258;95704.27;;;;
2022/05/21 02:59:58;;;;;;;10.7;7.95;;;;;;;17.5;75.14258;95704.27;;;;
2022/05/21 03:01:00;;;;;;;10.7;7.95;;;;;;;17.5;75.14258;95704.27;;;;
2022/05/21 03:02:00;;;;;;;10.7;7.95;;;;;;;17.5;75.14258;95704.27;;;;
2022/05/21 03:03:01;;;;;;;10.7;7.95;;;;;;;17.5;75.14258;95704.27;;;;
2022/05/21 03:04:02;;;;;;;10.7;7.95;;;;;;;17.5;75.14258;95704.27;;;;
2022/05/21 03:05:04;;;;;;;9.05;8.25;;;;;;;17.37;75.64453;95714.84;;;;
2022/05/21 03:06:05;;;;;;;9.05;8.25;;;;;;;17.37;75.64453;95714.84;;;;
2022/05/21 03:07:06;;;;;;;9.05;8.25;;;;;;;17.37;75.64453;95714.84;;;;
2022/05/21 03:10:20;;;;;;;9.05;8.25;;;;;;;17.37;75.64453;95714.84;;;;
2022/05/21 03:11:25;;;;;;;9.05;8.25;;;;;;;17.37;75.64453;95714.84;;;;
2022/05/21 03:12:26;;;;;;;9.05;8.25;;;;;;;17.37;75.64453;95714.84;;;;
2022/05/21 03:13:26;;;;;;;9.05;8.25;;;;;;;17.37;75.64453;95714.84;;;;
2022/05/21 03:14:27;;;;;;;9.05;8.25;;;;;;;17.37;75.64453;95714.84;;;;
2022/05/21 03:15:28;;;;;;;8.549999;7.65;;;;;;;17.27;76.29492;95703.47;;;;
2022/05/21 03:16:32;;;;;;;8.549999;7.65;;;;;;;17.27;76.29492;95703.47;;;;
2022/05/21 03:17:32;;;;;;;8.549999;7.65;;;;;;;17.27;76.29492;95703.47;;;;
2022/05/21 03:18:33;;;;;;;8.549999;7.65;;;;;;;17.27;76.29492;95703.47;;;;
2022/05/21 03:19:34;;;;;;;8.549999;7.65;;;;;;;17.27;76.29492;95703.47;;;;
2022/05/21 03:20:35;;;;;;;8.549999;7.65;;;;;;;17.27;76.29492;95703.47;;;;
2022/05/21 03:21:36;;;;;;;8.549999;7.65;;;;;;;17.27;76.29492;95703.47;;;;
2022/05/21 03:22:37;;;;;;;8.549999;7.65;;;;;;;17.27;76.29492;95703.47;;;;
2022/05/21 03:23:38;;;;;;;8.549999;7.65;;;;;;;17.27;76.29492;95703.47;;;;
2022/05/21 03:24:39;;;;;;;8.549999;7.65;;;;;;;17.27;76.29492;95703.47;;;;
2022/05/21 03:25:39;;;;;;;8.549999;7.65;;;;;;;17.27;76.29492;95703.47;;;;
2022/05/21 03:26:41;;;;;;;9.650001;8.250001;;;;;;;17.04;76.71289;95727.66;;;;
2022/05/21 03:27:41;;;;;;;9.650001;8.250001;;;;;;;17.04;76.71289;95727.66;;;;
2022/05/21 03:28:42;;;;;;;9.650001;8.250001;;;;;;;17.04;76.71289;95727.66;;;;
2022/05/21 03:29:42;;;;;;;9.650001;8.250001;;;;;;;17.04;76.71289;95727.66;;;;
2022/05/21 03:30:43;;;;;;;9.650001;8.250001;;;;;;;17.04;76.71289;95727.66;;;;
2022/05/21 03:31:44;;;;;;;9.650001;8.250001;;;;;;;17.04;76.71289;95727.66;;;;
2022/05/21 03:32:44;;;;;;;9.650001;8.250001;;;;;;;17.04;76.71289;95727.66;;;;
2022/05/21 03:33:45;;;;;;;9.650001;8.250001;;;;;;;17.04;76.71289;95727.66;;;;
2022/05/21 03:34:46;;;;;;;9.650001;8.250001;;;;;;;17.04;76.71289;95727.66;;;;
2022/05/21 03:35:47;;;;;;;9.650001;8.250001;;;;;;;17.04;76.71289;95727.66;;;;
2022/05/21 03:36:47;;;;;;;9.049999;7.7;;;;;;;16.94;77.32813;95721.75;;;;
2022/05/21 03:37:47;;;;;;;9.049999;7.7;;;;;;;16.94;77.32813;95721.75;;;;
2022/05/21 03:38:50;;;;;;;9.049999;7.7;;;;;;;16.94;77.32813;95721.75;;;;
2022/05/21 03:39:51;;;;;;;9.049999;7.7;;;;;;;16.94;77.32813;95721.75;;;;
2022/05/21 03:40:51;;;;;;;9.049999;7.7;;;;;;;16.94;77.32813;95721.75;;;;
2022/05/21 03:41:52;;;;;;;9.049999;7.7;;;;;;;16.94;77.32813;95721.75;;;;
2022/05/21 03:42:52;;;;;;;9.049999;7.7;;;;;;;16.94;77.32813;95721.75;;;;
2022/05/21 03:43:55;;;;;;;9.049999;7.7;;;;;;;16.94;77.32813;95721.75;;;;
2022/05/21 03:44:55;;;;;;;9.049999;7.7;;;;;;;16.94;77.32813;95721.75;;;;
2022/05/21 03:45:56;;;;;;;9.049999;7.7;;;;;;;16.94;77.32813;95721.75;;;;
2022/05/21 03:46:58;;;;;;;9.049999;7.7;;;;;;;16.94;77.32813;95721.75;;;;
2022/05/21 03:47:59;;;;;;;8.85;7.95;;;;;;;16.84;77.72559;95733.44;;;;
2022/05/21 03:49:00;;;;;;;8.85;7.95;;;;;;;16.84;77.72559;95733.44;;;;
2022/05/21 03:50:00;;;;;;;8.85;7.95;;;;;;;16.84;77.72559;95733.44;;;;
2022/05/21 03:51:01;;;;;;;8.85;7.95;;;;;;;16.84;77.72559;95733.44;;;;
2022/05/21 03:52:01;;;;;;;8.85;7.95;;;;;;;16.84;77.72559;95733.44;;;;
2022/05/21 03:53:02;;;;;;;8.85;7.95;;;;;;;16.84;77.72559;95733.44;;;;
2022/05/21 03:54:02;;;;;;;8.85;7.95;;;;;;;16.84;77.72559;95733.44;;;;
2022/05/21 03:55:03;;;;;;;8.85;7.95;;;;;;;16.84;77.72559;95733.44;;;;
2022/05/21 03:56:05;;;;;;;8.85;7.95;;;;;;;16.84;77.72559;95733.44;;;;
2022/05/21 03:57:06;;;;;;;8.85;7.95;;;;;;;16.84;77.72559;95733.44;;;;
2022/05/21 03:58:07;;;;;;;10;8.299999;;;;;;;16.81;78.11328;95738.48;;;;
2022/05/21 03:59:08;;;;;;;10;8.299999;;;;;;;16.81;78.11328;95738.48;;;;
2022/05/21 04:00:08;;;;;;;10;8.299999;;;;;;;16.81;78.11328;95738.48;;;;
2022/05/21 04:01:13;;;;;;;10;8.299999;;;;;;;16.81;78.11328;95738.48;;;;
2022/05/21 04:02:14;;;;;;;10;8.299999;;;;;;;16.81;78.11328;95738.48;;;;
2022/05/21 04:03:15;;;;;;;10;8.299999;;;;;;;16.81;78.11328;95738.48;;;;
2022/05/21 04:04:16;;;;;;;10;8.299999;;;;;;;16.81;78.11328;95738.48;;;;
2022/05/21 04:05:16;;;;;;;10;8.299999;;;;;;;16.81;78.11328;95738.48;;;;
2022/05/21 04:06:17;;;;;;;10;8.299999;;;;;;;16.81;78.11328;95738.48;;;;
2022/05/21 04:07:18;;;;;;;10;8.299999;;;;;;;16.81;78.11328;95738.48;;;;
2022/05/21 04:08:18;;;;;;;10;8.299999;;;;;;;16.81;78.11328;95738.48;;;;
2022/05/21 04:09:19;;;;;;;9.35;8;;;;;;;16.73;78.34766;95763.81;;;;
2022/05/21 04:10:20;;;;;;;9.35;8;;;;;;;16.73;78.34766;95763.81;;;;
2022/05/21 04:11:20;;;;;;;9.35;8;;;;;;;16.73;78.34766;95763.81;;;;
2022/05/21 04:12:20;;;;;;;9.35;8;;;;;;;16.73;78.34766;95763.81;;;;
2022/05/21 04:13:22;;;;;;;9.35;8;;;;;;;16.73;78.34766;95763.81;;;;
2022/05/21 04:14:27;;;;;;;9.35;8;;;;;;;16.73;78.34766;95763.81;;;;
2022/05/21 04:15:27;;;;;;;9.35;8;;;;;;;16.73;78.34766;95763.81;;;;
2022/05/21 04:16:28;;;;;;;9.35;8;;;;;;;16.73;78.34766;95763.81;;;;
2022/05/21 04:17:28;;;;;;;9.35;8;;;;;;;16.73;78.34766;95763.81;;;;
2022/05/21 04:18:29;;;;;;;9.35;8;;;;;;;16.73;78.34766;95763.81;;;;
2022/05/21 04:19:29;;;;;;;11.1;8.65;;;;;;;16.66;78.71875;95781.31;;;;
2022/05/21 04:20:31;;;;;;;11.1;8.65;;;;;;;16.66;78.71875;95781.31;;;;
2022/05/21 04:21:31;;;;;;;11.1;8.65;;;;;;;16.66;78.71875;95781.31;;;;
2022/05/21 04:22:32;;;;;;;11.1;8.65;;;;;;;16.66;78.71875;95781.31;;;;
2022/05/21 04:23:32;;;;;;;11.1;8.65;;;;;;;16.66;78.71875;95781.31;;;;
2022/05/21 04:24:33;;;;;;;11.1;8.65;;;;;;;16.66;78.71875;95781.31;;;;
2022/05/21 04:25:33;;;;;;;11.1;8.65;;;;;;;16.66;78.71875;95781.31;;;;
2022/05/21 04:26:34;;;;;;;11.1;8.65;;;;;;;16.66;78.71875;95781.31;;;;
2022/05/21 04:27:34;;;;;;;11.1;8.65;;;;;;;16.66;78.71875;95781.31;;;;
2022/05/21 04:28:37;;;;;;;11.1;8.65;;;;;;;16.66;78.71875;95781.31;;;;
2022/05/21 04:29:37;;;;;;;11.1;8.65;;;;;;;16.66;78.71875;95781.31;;;;
2022/05/21 04:30:38;;;;;;;8.700001;7.799999;;;;;;;16.59;79.00195;95782.78;;;;
2022/05/21 04:31:39;;;;;;;8.700001;7.799999;;;;;;;16.59;79.00195;95782.78;;;;
2022/05/21 04:32:39;;;;;;;8.700001;7.799999;;;;;;;16.59;79.00195;95782.78;;;;
2022/05/21 04:33:40;;;;;;;8.700001;7.799999;;;;;;;16.59;79.00195;95782.78;;;;
2022/05/21 04:34:41;;;;;;;8.700001;7.799999;;;;;;;16.59;79.00195;95782.78;;;;
2022/05/21 04:36:46;;;;;;;8.700001;7.799999;;;;;;;16.59;79.00195;95782.78;;;;
2022/05/21 04:37:47;;;;;;;8.700001;7.799999;;;;;;;16.59;79.00195;95782.78;;;;
2022/05/21 04:38:48;;;;;;;8.700001;7.799999;;;;;;;16.59;79.00195;95782.78;;;;
2022/05/21 04:39:50;;;;;;;8.700001;7.799999;;;;;;;16.59;79.00195;95782.78;;;;
2022/05/21 04:40:51;;;;;;;8.4;6.699999;;;;;;;16.51;79.3457;95780.49;;;;
2022/05/21 04:41:52;;;;;;;8.4;6.699999;;;;;;;16.51;79.3457;95780.49;;;;
2022/05/21 04:42:53;;;;;;;8.4;6.699999;;;;;;;16.51;79.3457;95780.49;;;;
2022/05/21 04:43:53;;;;;;;8.4;6.699999;;;;;;;16.51;79.3457;95780.49;;;;
2022/05/21 04:44:54;;;;;;;8.4;6.699999;;;;;;;16.51;79.3457;95780.49;;;;
2022/05/21 04:45:55;;;;;;;8.4;6.699999;;;;;;;16.51;79.3457;95780.49;;;;
2022/05/21 04:46:55;;;;;;;8.4;6.699999;;;;;;;16.51;79.3457;95780.49;;;;
2022/05/21 04:47:56;;;;;;;8.4;6.699999;;;;;;;16.51;79.3457;95780.49;;;;
2022/05/21 04:48:56;;;;;;;8.4;6.699999;;;;;;;16.51;79.3457;95780.49;;;;
2022/05/21 04:49:57;;;;;;;8.4;6.699999;;;;;;;16.51;79.3457;95780.49;;;;
2022/05/21 04:50:57;;;;;;;8.4;6.699999;;;;;;;16.51;79.3457;95780.49;;;;
2022/05/21 04:51:59;;;;;;;7.900001;7.1;;;;;;;16.55;79.38574;95803.1;;;;
2022/05/21 04:53:01;;;;;;;7.900001;7.1;;;;;;;16.55;79.38574;95803.1;;;;
2022/05/21 04:54:02;;;;;;;7.900001;7.1;;;;;;;16.55;79.38574;95803.1;;;;
2022/05/21 04:55:03;;;;;;;7.900001;7.1;;;;;;;16.55;79.38574;95803.1;;;;
2022/05/21 04:56:06;;;;;;;7.900001;7.1;;;;;;;16.55;79.38574;95803.1;;;;
2022/05/21 04:57:07;;;;;;;7.900001;7.1;;;;;;;16.55;79.38574;95803.1;;;;
2022/05/21 04:58:08;;;;;;;7.900001;7.1;;;;;;;16.55;79.38574;95803.1;;;;
2022/05/21 04:59:09;;;;;;;7.900001;7.1;;;;;;;16.55;79.38574;95803.1;;;;
2022/05/21 05:00:11;;;;;;;7.900001;7.1;;;;;;;16.55;79.38574;95803.1;;;;
2022/05/21 05:01:13;;;;;;;7.900001;7.1;;;;;;;16.55;79.38574;95803.1;;;;
2022/05/21 05:02:13;;;;;;;7.900001;7.1;;;;;;;16.55;79.38574;95803.1;;;;
2022/05/21 05:03:14;;;;;;;7.900001;7.1;;;;;;;16.55;79.38574;95803.1;;;;
2022/05/21 05:04:16;;;;;;;7.900001;7.1;;;;;;;16.55;79.38574;95803.1;;;;
2022/05/21 05:05:17;;;;;;;7.900001;7.1;;;;;;;16.55;79.38574;95803.1;;;;
2022/05/21 05:06:17;;;;;;;7.900001;7.1;;;;;;;16.55;79.38574;95803.1;;;;
2022/05/21 05:07:19;;;;;;;7.900001;7.1;;;;;;;16.55;79.38574;95803.1;;;;
2022/05/21 05:08:19;;;;;;;7.900001;7.1;;;;;;;16.55;79.38574;95803.1;;;;
2022/05/21 05:09:22;;;;;;;7.900001;7.1;;;;;;;16.55;79.38574;95803.1;;;;
2022/05/21 05:10:24;;;;;;;7.900001;7.1;;;;;;;16.55;79.38574;95803.1;;;;
2022/05/21 05:11:24;;;;;;;7.900001;7.1;;;;;;;16.55;79.38574;95803.1;;;;
2022/05/21 05:12:27;;;;;;;7.900001;7.1;;;;;;;16.55;79.38574;95803.1;;;;
2022/05/21 05:13:27;;;;;;;8.5;6.900001;;;;;;;17.36;79.91113;95821.89;;;;
2022/05/21 05:14:28;;;;;;;8.5;6.900001;;;;;;;17.36;79.91113;95821.89;;;;
2022/05/21 05:15:28;;;;;;;8.5;6.900001;;;;;;;17.36;79.91113;95821.89;;;;
2022/05/21 05:16:29;;;;;;;8.5;6.900001;;;;;;;17.36;79.91113;95821.89;;;;
2022/05/21 05:17:30;;;;;;;8.5;6.900001;;;;;;;17.36;79.91113;95821.89;;;;
2022/05/21 05:18:31;;;;;;;8.5;6.900001;;;;;;;17.36;79.91113;95821.89;;;;
2022/05/21 05:19:33;;;;;;;8.5;6.900001;;;;;;;17.36;79.91113;95821.89;;;;
2022/05/21 05:20:34;;;;;;;8.5;6.900001;;;;;;;17.36;79.91113;95821.89;;;;
2022/05/21 05:21:36;;;;;;;8.5;6.900001;;;;;;;17.36;79.91113;95821.89;;;;
2022/05/21 05:22:37;;;;;;;8.5;6.900001;;;;;;;17.36;79.91113;95821.89;;;;
2022/05/21 05:23:37;;;;;;;5.550001;4.950001;;;;;;;17.7;79.53516;95820.5;;;;
2022/05/21 05:24:38;;;;;;;5.550001;4.950001;;;;;;;17.7;79.53516;95820.5;;;;
2022/05/21 05:25:39;;;;;;;5.550001;4.950001;;;;;;;17.7;79.53516;95820.5;;;;
2022/05/21 05:26:40;;;;;;;5.550001;4.950001;;;;;;;17.7;79.53516;95820.5;;;;
2022/05/21 05:27:41;;;;;;;5.550001;4.950001;;;;;;;17.7;79.53516;95820.5;;;;
2022/05/21 05:28:41;;;;;;;5.550001;4.950001;;;;;;;17.7;79.53516;95820.5;;;;
2022/05/21 05:29:42;;;;;;;5.550001;4.950001;;;;;;;17.7;79.53516;95820.5;;;;
2022/05/21 05:30:42;;;;;;;5.550001;4.950001;;;;;;;17.7;79.53516;95820.5;;;;
2022/05/21 05:31:43;;;;;;;5.550001;4.950001;;;;;;;17.7;79.53516;95820.5;;;;
2022/05/21 05:32:44;;;;;;;5.550001;4.950001;;;;;;;17.7;79.53516;95820.5;;;;
2022/05/21 05:33:44;;;;;;;5.550001;4.950001;;;;;;;17.7;79.53516;95820.5;;;;
2022/05/21 05:34:45;;;;;;;7.75;5.05;;;;;;;18.05;78.96484;95823.72;;;;
2022/05/21 05:35:45;;;;;;;7.75;5.05;;;;;;;18.05;78.96484;95823.72;;;;
2022/05/21 05:36:47;;;;;;;7.75;5.05;;;;;;;18.05;78.96484;95823.72;;;;
2022/05/21 05:37:47;;;;;;;7.75;5.05;;;;;;;18.05;78.96484;95823.72;;;;
2022/05/21 05:38:48;;;;;;;7.75;5.05;;;;;;;18.05;78.96484;95823.72;;;;
2022/05/21 05:39:48;;;;;;;7.75;5.05;;;;;;;18.05;78.96484;95823.72;;;;
2022/05/21 05:40:50;;;;;;;7.75;5.05;;;;;;;18.05;78.96484;95823.72;;;;
2022/05/21 05:41:52;;;;;;;7.75;5.05;;;;;;;18.05;78.96484;95823.72;;;;
2022/05/21 05:42:53;;;;;;;7.75;5.05;;;;;;;18.05;78.96484;95823.72;;;;
2022/05/21 05:43:53;;;;;;;7.75;5.05;;;;;;;18.05;78.96484;95823.72;;;;
2022/05/21 05:44:54;;;;;;;4.900001;4.2;;;;;;;18.92;78.09961;95824.69;;;;
2022/05/21 05:45:58;;;;;;;4.900001;4.2;;;;;;;18.92;78.09961;95824.69;;;;
2022/05/21 05:46:58;;;;;;;4.900001;4.2;;;;;;;18.92;78.09961;95824.69;;;;
2022/05/21 05:47:59;;;;;;;4.900001;4.2;;;;;;;18.92;78.09961;95824.69;;;;
2022/05/21 05:49:00;;;;;;;4.900001;4.2;;;;;;;18.92;78.09961;95824.69;;;;
2022/05/21 05:50:00;;;;;;;4.900001;4.2;;;;;;;18.92;78.09961;95824.69;;;;
2022/05/21 05:51:02;;;;;;;4.900001;4.2;;;;;;;18.92;78.09961;95824.69;;;;
2022/05/21 05:52:03;;;;;;;4.900001;4.2;;;;;;;18.92;78.09961;95824.69;;;;
2022/05/21 05:53:04;;;;;;;4.900001;4.2;;;;;;;18.92;78.09961;95824.69;;;;
2022/05/21 05:54:07;;;;;;;4.900001;4.2;;;;;;;18.92;78.09961;95824.69;;;;
2022/05/21 05:55:08;;;;;;;4.900001;4.2;;;;;;;18.92;78.09961;95824.69;;;;